Welcome!

Visit our other weather sites:

Template documentation
and downloads

And another site



There are no active watches, warnings or advisories

Nearby METAR Reports

   
KAVP - Albrightsville, PA
Updated: Nov 20 2019 10:54 pm
Overcast  
Overcast  
   Wind: North 5.8 mph
Wind: North 5.8 mph
Temperature: 42.8°F
Wind Chill: 39.2°F
Dew Point: 33.8°F
Humidity: 71%
Barometer: 30.15 inHg
Clouds: Overcast
Visibility: 7 mi
Cloud details: Overcast 671 m
KAVP 210454Z 01005KT 7SM OVC022 06/01 A3015 RMK AO2 SLP215 T00560006 400610033
KIWA - Apache Junction, AZ
Updated: Nov 20 2019 10:50 pm
Overcast  
Overcast  
   Wind: varies 3.5 mph
Wind: varies 3.5 mph
Temperature: 55.4°F
Dew Point: 51.8°F
Humidity: 88%
Barometer: 29.8 inHg
Clouds: Overcast
Visibility: 10 mi
Cloud details: Mostly Cloudy 1524 m,
Overcast 2591 m
KIWA 210450Z VRB03KT 10SM BKN050 OVC085 13/11 A2980 RMK LTG DSNT E
KPKB - Blue Rock, OH
Updated: Nov 20 2019 10:53 pm
Clear  
Clear  
   Wind: Calm
Wind: Calm
Temperature: 30.2°F
Dew Point: 28.4°F
Humidity: 93%
Barometer: 30.3 inHg
Clouds: Clear
Visibility: 8 mi
Cloud details: Clear
KPKB 210453Z AUTO 00000KT 8SM CLR M01/M02 A3030 RMK AO2 SLP267 T10061022 401171017
KHVN - Branford, CT
Updated: Nov 20 2019 10:53 pm
Overcast  
Overcast  
   Wind: NW 6.9 mph
Wind: NW 6.9 mph
Temperature: 42.8°F
Wind Chill: 39.2°F
Dew Point: 30.2°F
Humidity: 61%
Barometer: 30.08 inHg
Clouds: Overcast
Visibility: 10 mi
Cloud details: Overcast 1128 m
KHVN 210453Z AUTO 32006KT 10SM OVC037 06/M01 A3008 RMK AO2 SLP184 T00611011 400830056
KPHX - Carefree, AZ
Updated: Nov 20 2019 10:51 pm
Light Rain, Mostly Cloudy  
Light Rain, Mostly Cloudy  
   Wind: NW 11.5 mph
Wind: NW 11.5 mph
Temperature: 57.2°F
Dew Point: 50°F
Humidity: 77%
Barometer: 29.77 inHg
Clouds: Mostly Cloudy
Visibility: 10 mi
Cloud details: Mostly Cloudy 1372 m,
Mostly Cloudy 1676 m,
Mostly Cloudy 2134 m
KPHX 210451Z 31010KT 10SM -RA BKN045 BKN055 BKN070 14/10 A2977 RMK AO2 RAB25 SLP071 P0000 T01390100
 

Script developed by  Saratoga-weather.org Adapted for the template by  Weerstation Leuven